Time;durP1;ratioP1;P1;durP2;ratioP2;P2;SDS_P1;SDS_P2;PMS_P1;PMS_P2;Temp;Humidity;BMP_temperature;BMP_pressure;BME280_temperature;BME280_humidity;BME280_pressure;Samples;Min_cycle;Max_cycle;Signal;HPM_P1;HPM_P2
2023/03/14 00:00:18;;;;;;;0.50;0.50;;;;;;;8.17;100.00;95294.75;29397;316;63004;-58
2023/03/14 00:00:52;;;;;;;0.50;0.50;;;;;;;8.19;100.00;95286.34;29397;264;63009;-57
2023/03/14 00:01:23;;;;;;;0.50;0.50;;;;;;;8.19;100.00;95286.34;29397;222;63005;-57
2023/03/14 00:01:55;;;;;;;0.50;0.50;;;;;;;8.17;100.00;95277.75;29397;230;63009;-57
2023/03/14 00:02:27;;;;;;;0.50;0.50;;;;;;;8.15;100.00;95285.38;29397;215;63005;-57
2023/03/14 00:02:58;;;;;;;0.52;0.52;;;;;;;8.13;100.00;95280.28;29397;216;63020;-55
2023/03/14 00:03:30;;;;;;;0.50;0.50;;;;;;;8.14;100.00;95289.97;29397;305;63005;-57
2023/03/14 00:04:05;;;;;;;0.50;0.50;;;;;;;8.14;100.00;95294.59;29396;220;64013;-56
2023/03/14 00:04:37;;;;;;;0.50;0.50;;;;;;;8.19;100.00;95291.75;29397;301;63004;-57
2023/03/14 00:05:09;;;;;;;0.50;0.50;;;;;;;8.20;100.00;95279.81;29397;221;63009;-59
2023/03/14 00:05:41;;;;;;;0.60;0.60;;;;;;;8.20;100.00;95287.94;29397;295;63004;-56
2023/03/14 00:06:16;;;;;;;0.50;0.50;;;;;;;8.17;100.00;95272.34;29397;219;63009;-57
2023/03/14 00:06:49;;;;;;;0.50;0.50;;;;;;;8.19;100.00;95270.91;29397;220;63004;-61
2023/03/14 00:07:21;;;;;;;0.50;0.50;;;;;;;8.25;100.00;95268.87;29397;219;63008;-72
2023/03/14 00:07:53;;;;;;;0.50;0.50;;;;;;;8.24;100.00;95278.06;29397;222;63004;-57
2023/03/14 00:08:25;;;;;;;0.50;0.50;;;;;;;8.20;100.00;95287.94;29396;197;64014;-63
2023/03/14 00:08:56;;;;;;;0.50;0.50;;;;;;;8.18;100.00;95301.75;29397;231;63005;-57
2023/03/14 00:09:29;;;;;;;0.50;0.50;;;;;;;8.20;100.00;95304.13;29397;248;63016;-57
2023/03/14 00:10:07;;;;;;;0.50;0.50;;;;;;;8.22;100.00;95301.91;29397;203;63005;-55
2023/03/14 00:11:45;;;;;;;0.59;0.59;;;;;;;8.21;100.00;95292.22;88178;255;64005;-66
2023/03/14 00:12:17;;;;;;;0.50;0.50;;;;;;;8.19;100.00;95294.44;29394;207;64009;-57
2023/03/14 00:12:48;;;;;;;0.50;0.50;;;;;;;8.20;100.00;95290.63;29395;212;63005;-58
2023/03/14 00:13:19;;;;;;;0.50;0.50;;;;;;;8.18;100.00;95296.34;29394;226;64014;-56
2023/03/14 00:13:52;;;;;;;0.50;0.50;;;;;;;8.16;100.00;95284.25;29395;211;63005;-56
2023/03/14 00:14:26;;;;;;;0.50;0.50;;;;;;;8.19;100.00;95280.94;29395;273;63009;-56
2023/03/14 00:14:59;;;;;;;0.50;0.50;;;;;;;8.20;100.00;95282.53;29395;227;63005;-56
2023/03/14 00:15:33;;;;;;;0.50;0.50;;;;;;;8.23;100.00;95287.28;29395;209;63009;-58
2023/03/14 00:16:10;;;;;;;0.50;0.50;;;;;;;8.19;100.00;95280.94;29395;285;63005;-58
2023/03/14 00:16:46;;;;;;;0.50;0.50;;;;;;;8.15;100.00;95275.37;29395;213;63009;-57
2023/03/14 00:17:18;;;;;;;0.50;0.50;;;;;;;8.12;100.00;95277.91;29395;209;63004;-56
2023/03/14 00:17:49;;;;;;;0.50;0.50;;;;;;;8.13;100.00;95282.19;29395;238;63009;-57
2023/03/14 00:18:22;;;;;;;0.60;0.60;;;;;;;8.10;100.00;95280.12;29394;224;64009;-58
2023/03/14 00:18:57;;;;;;;0.50;0.50;;;;;;;8.08;100.00;95280.44;29394;199;64013;-58
2023/03/14 00:19:30;;;;;;;0.50;0.50;;;;;;;8.08;100.00;95275.81;29395;296;63005;-56
2023/03/14 00:20:07;;;;;;;0.50;0.50;;;;;;;8.05;100.00;95281.84;29395;253;63018;-55
2023/03/14 00:20:39;;;;;;;0.60;0.60;;;;;;;8.10;100.00;95288.22;29395;200;63005;-56
2023/03/14 00:21:11;;;;;;;0.60;0.60;;;;;;;8.13;100.00;95282.19;29395;250;63009;-58
2023/03/14 00:21:43;;;;;;;0.50;0.50;;;;;;;8.10;100.00;95286.31;29395;272;63005;-56
2023/03/14 00:22:14;;;;;;;0.50;0.50;;;;;;;8.07;100.00;95285.03;29395;264;63009;-58
2023/03/14 00:22:46;;;;;;;0.50;0.50;;;;;;;8.12;100.00;95269.78;29395;211;63005;-55
2023/03/14 00:23:17;;;;;;;0.50;0.50;;;;;;;8.18;100.00;95273.94;29395;275;63009;-56
2023/03/14 00:23:49;;;;;;;0.50;0.50;;;;;;;8.17;100.00;95267.75;29394;222;64009;-58
2023/03/14 00:24:21;;;;;;;0.50;0.50;;;;;;;8.18;100.00;95266.63;29394;250;64013;-64
2023/03/14 00:24:52;;;;;;;0.50;0.50;;;;;;;8.17;100.00;95258.84;29395;210;63009;-57
2023/03/14 00:25:23;;;;;;;0.50;0.50;;;;;;;8.15;100.00;95253.75;29395;197;63009;-57
2023/03/14 00:26:06;;;;;;;0.50;0.50;;;;;;;8.14;100.00;95251.38;29394;215;64009;-57
2023/03/14 00:26:37;;;;;;;0.50;0.50;;;;;;;8.15;100.00;95252.94;29395;197;63008;-57
2023/03/14 00:27:09;;;;;;;1.30;1.30;;;;;;;8.17;100.00;95256.12;29395;209;63005;-56
2023/03/14 00:27:40;;;;;;;0.60;0.60;;;;;;;8.19;100.00;95253.91;29395;270;63009;-57
2023/03/14 00:28:12;;;;;;;0.50;0.50;;;;;;;8.16;100.00;95246.44;29395;213;63005;-57
2023/03/14 00:28:44;;;;;;;0.50;0.50;;;;;;;8.13;100.00;95250.56;29395;289;63009;-58
2023/03/14 00:29:16;;;;;;;0.50;0.50;;;;;;;8.12;100.00;95248.19;29394;263;64009;-65
2023/03/14 00:29:50;;;;;;;0.50;0.50;;;;;;;8.12;100.00;95253.59;29394;220;64009;-57
2023/03/14 00:30:22;;;;;;;0.50;0.50;;;;;;;8.11;100.00;95254.69;29395;277;63005;-58
2023/03/14 00:30:54;;;;;;;0.50;0.50;;;;;;;8.10;100.00;95267.41;29395;223;63009;-58
2023/03/14 00:31:25;;;;;;;0.50;0.50;;;;;;;8.07;100.00;95262.63;29394;214;64009;-57
2023/03/14 00:31:56;;;;;;;0.50;0.50;;;;;;;8.07;100.00;95252.63;29394;222;64013;-66
2023/03/14 00:32:28;;;;;;;0.50;0.50;;;;;;;8.07;100.00;95258.03;29395;209;63004;-60
2023/03/14 00:32:59;;;;;;;0.50;0.50;;;;;;;8.08;100.00;95264.22;29395;214;63009;-57
2023/03/14 00:33:30;;;;;;;0.50;0.50;;;;;;;8.06;100.00;95266.44;29395;213;63004;-57
2023/03/14 00:34:01;;;;;;;0.50;0.50;;;;;;;8.05;100.00;95265.66;29395;307;63008;-57
2023/03/14 00:34:33;;;;;;;0.50;0.50;;;;;;;8.03;100.00;95267.87;29394;222;64008;-56
2023/03/14 00:35:06;;;;;;;0.50;0.50;;;;;;;8.04;100.00;95272.16;29395;345;63009;-57
2023/03/14 00:35:37;;;;;;;0.50;0.50;;;;;;;8.08;100.00;95264.22;29395;225;63000;-57
2023/03/14 00:36:13;;;;;;;0.50;0.50;;;;;;;8.07;100.00;95263.44;29395;212;63009;-57
2023/03/14 00:36:45;;;;;;;0.50;0.50;;;;;;;8.04;100.00;95264.06;29395;210;63005;-58
2023/03/14 00:37:17;;;;;;;0.50;0.50;;;;;;;8.03;100.00;95262.47;29395;211;63009;-58
2023/03/14 00:37:48;;;;;;;0.50;0.50;;;;;;;8.02;100.00;95263.56;29394;237;64009;-57
2023/03/14 00:38:19;;;;;;;0.50;0.50;;;;;;;8.00;100.00;95263.09;29395;218;63009;-57
2023/03/14 00:38:52;;;;;;;0.50;0.50;;;;;;;8.00;100.00;95265.78;29395;228;63004;-57
2023/03/14 00:39:23;;;;;;;0.50;0.50;;;;;;;8.02;100.00;95274.38;29395;198;63009;-67
2023/03/14 00:39:58;;;;;;;0.50;0.50;;;;;;;8.04;100.00;95274.87;29395;206;63004;-58
2023/03/14 00:40:29;;;;;;;0.50;0.50;;;;;;;8.08;100.00;95269.63;29395;197;63008;-57
2023/03/14 00:41:10;;;;;;;0.50;0.50;;;;;;;8.10;100.00;95272.00;29395;299;63004;-57
2023/03/14 00:41:42;;;;;;;0.50;0.50;;;;;;;8.13;100.00;95282.19;29394;262;64013;-56
2023/03/14 00:42:14;;;;;;;0.50;0.50;;;;;;;8.12;100.00;95284.09;29395;204;63005;-67
2023/03/14 00:42:46;;;;;;;0.50;0.50;;;;;;;8.13;100.00;95282.19;29395;234;63009;-67
2023/03/14 00:43:18;;;;;;;0.50;0.50;;;;;;;8.12;100.00;95280.59;29395;210;63005;-57
2023/03/14 00:43:51;;;;;;;0.50;0.50;;;;;;;8.15;100.00;95274.56;29394;287;64013;-56
2023/03/14 00:44:27;;;;;;;0.60;0.60;;;;;;;8.13;100.00;95271.38;29394;215;64009;-58
2023/03/14 00:44:58;;;;;;;0.50;0.50;;;;;;;8.10;100.00;95277.41;29395;351;63005;-68
2023/03/14 00:45:30;;;;;;;0.50;0.50;;;;;;;8.05;100.00;95276.44;29394;215;64009;-57
2023/03/14 00:46:02;;;;;;;0.50;0.50;;;;;;;8.06;100.00;95272.62;29395;212;63009;-57
2023/03/14 00:46:35;;;;;;;0.50;0.50;;;;;;;8.06;100.00;95277.25;29394;208;64009;-57
2023/03/14 00:47:06;;;;;;;0.50;0.50;;;;;;;8.09;100.00;95260.41;29395;204;63009;-59
2023/03/14 00:47:38;;;;;;;0.50;0.50;;;;;;;8.10;100.00;95266.59;29395;229;63004;-58
2023/03/14 00:48:10;;;;;;;0.50;0.50;;;;;;;8.08;100.00;95269.63;29395;355;63008;-58
2023/03/14 00:48:41;;;;;;;0.50;0.50;;;;;;;8.10;100.00;95266.59;29395;221;63004;-56
2023/03/14 00:49:13;;;;;;;0.50;0.50;;;;;;;8.10;100.00;95266.59;29395;221;63009;-57
2023/03/14 00:49:44;;;;;;;0.50;0.50;;;;;;;8.09;100.00;95265.81;29395;207;63005;-69
2023/03/14 00:50:16;;;;;;;0.50;0.50;;;;;;;8.08;100.00;95267.72;29395;244;63009;-58
2023/03/14 00:50:48;;;;;;;0.50;0.50;;;;;;;8.08;100.00;95259.63;29395;221;63005;-57
2023/03/14 00:51:20;;;;;;;0.50;0.50;;;;;;;8.04;100.00;95258.66;29394;202;64013;-57
2023/03/14 00:51:52;;;;;;;0.50;0.50;;;;;;;8.02;100.00;95254.69;29394;198;64009;-56
2023/03/14 00:52:23;;;;;;;0.50;0.50;;;;;;;8.08;100.00;95258.81;29395;218;63019;-57
2023/03/14 00:52:55;;;;;;;0.50;0.50;;;;;;;8.05;100.00;95271.06;29394;230;64009;-57
2023/03/14 00:53:27;;;;;;;0.50;0.50;;;;;;;8.03;100.00;95270.56;29395;256;63009;-57
2023/03/14 00:54:00;;;;;;;0.50;0.50;;;;;;;8.00;100.00;95273.91;29395;235;63009;-57
2023/03/14 00:54:32;;;;;;;0.50;0.50;;;;;;;8.00;100.00;95271.19;29395;318;63009;-57
2023/03/14 00:55:07;;;;;;;0.50;0.50;;;;;;;7.99;100.00;95272.31;29395;202;63004;-71
2023/03/14 00:55:40;;;;;;;0.50;0.50;;;;;;;8.00;100.00;95273.09;29394;197;64013;-57
2023/03/14 00:56:13;;;;;;;0.50;0.50;;;;;;;8.02;100.00;95271.69;29395;227;63004;-57
2023/03/14 00:56:47;;;;;;;0.50;0.50;;;;;;;8.03;100.00;95273.28;29395;244;63009;-57
2023/03/14 00:57:19;;;;;;;0.50;0.50;;;;;;;8.05;100.00;95281.84;29395;294;63005;-57
2023/03/14 00:57:50;;;;;;;0.50;0.50;;;;;;;8.03;100.00;95277.88;29394;220;64014;-57
2023/03/14 00:58:22;;;;;;;0.60;0.60;;;;;;;8.07;100.00;95279.62;29395;206;63014;-57
2023/03/14 00:58:56;;;;;;;0.50;0.50;;;;;;;8.09;100.00;95279.31;29395;247;63008;-57
2023/03/14 00:59:27;;;;;;;0.50;0.50;;;;;;;8.11;100.00;95281.72;29395;252;63005;-56
2023/03/14 00:59:59;;;;;;;0.50;0.50;;;;;;;8.06;100.00;95283.44;29395;209;63009;-59
2023/03/14 01:00:31;;;;;;;0.50;0.50;;;;;;;8.03;100.00;95284.06;29395;298;63005;-57
2023/03/14 01:01:10;;;;;;;0.50;0.50;;;;;;;8.00;100.00;95284.69;29395;235;63009;-57
2023/03/14 01:01:41;;;;;;;0.50;0.50;;;;;;;7.98;100.00;95284.22;29394;204;64009;-57
2023/03/14 01:02:13;;;;;;;0.50;0.50;;;;;;;7.97;100.00;95284.56;29394;242;64013;-58
2023/03/14 01:02:44;;;;;;;0.50;0.50;;;;;;;7.96;100.00;95288.38;29395;240;63004;-67
2023/03/14 01:03:16;;;;;;;0.50;0.50;;;;;;;7.95;100.00;95287.56;29395;257;63008;-57
2023/03/14 01:03:51;;;;;;;0.50;0.50;;;;;;;7.96;100.00;95283.78;29395;199;63004;-58
2023/03/14 01:04:22;;;;;;;0.50;0.50;;;;;;;7.96;100.00;95291.06;29395;210;63009;-57
2023/03/14 01:04:55;;;;;;;0.50;0.50;;;;;;;7.96;100.00;95296.47;29395;302;63005;-56
2023/03/14 01:05:28;;;;;;;0.50;0.50;;;;;;;7.94;100.00;95299.50;29395;345;63009;-57
2023/03/14 01:06:20;;;;;;;0.50;0.50;;;;;;;7.93;100.00;95289.78;29395;257;63005;-57
2023/03/14 01:06:52;;;;;;;0.50;0.50;;;;;;;7.93;100.00;95289.78;29394;211;64013;-57
2023/03/14 01:07:24;;;;;;;0.50;0.50;;;;;;;7.92;100.00;95293.59;29394;208;64009;-58
2023/03/14 01:07:55;;;;;;;0.50;0.50;;;;;;;7.98;100.00;95296.94;29395;206;63026;-57
2023/03/14 01:08:43;;;;;;;0.50;0.50;;;;;;;7.97;100.00;95296.13;29395;205;63009;-67
2023/03/14 01:09:17;;;;;;;0.50;0.50;;;;;;;8.03;100.00;95305.69;29394;229;64013;-57
2023/03/14 01:09:52;;;;;;;0.50;0.50;;;;;;;8.13;100.00;95299.19;29395;202;63004;-57
2023/03/14 01:10:26;;;;;;;0.60;0.60;;;;;;;8.18;100.00;95306.34;29395;228;63009;-57
2023/03/14 01:10:59;;;;;;;0.50;0.50;;;;;;;8.15;100.00;95302.38;29395;203;63004;-67
2023/03/14 01:11:33;;;;;;;0.50;0.50;;;;;;;8.13;100.00;95299.19;29395;222;63009;-55
2023/03/14 01:12:05;;;;;;;0.50;0.50;;;;;;;8.12;100.00;95304.91;29395;224;63009;-57
2023/03/14 01:12:36;;;;;;;0.50;0.50;;;;;;;8.11;100.00;95303.31;29395;262;63009;-57
2023/03/14 01:13:08;;;;;;;0.50;0.50;;;;;;;8.08;100.00;95292.03;29394;205;64009;-57
2023/03/14 01:13:40;;;;;;;0.50;0.50;;;;;;;8.12;100.00;95302.22;29395;332;63020;-57
2023/03/14 01:14:14;;;;;;;0.50;0.50;;;;;;;8.10;100.00;95294.41;29395;202;63005;-57
2023/03/14 01:14:48;;;;;;;0.50;0.50;;;;;;;8.08;100.00;95302.84;29395;200;63009;-56
2023/03/14 01:15:20;;;;;;;0.50;0.50;;;;;;;8.08;100.00;95293.94;29395;219;63005;-68
2023/03/14 01:15:51;;;;;;;0.50;0.50;;;;;;;8.08;100.00;95292.03;29395;212;63009;-58
2023/03/14 01:16:25;;;;;;;0.50;0.50;;;;;;;8.11;100.00;95289.81;29395;216;63004;-57
2023/03/14 01:17:00;;;;;;;0.50;0.50;;;;;;;8.12;100.00;95291.41;29395;224;63009;-56
2023/03/14 01:17:32;;;;;;;0.50;0.50;;;;;;;8.10;100.00;95288.22;29394;217;64009;-56
2023/03/14 01:18:04;;;;;;;0.50;0.50;;;;;;;8.10;100.00;95290.94;29395;204;63009;-56
2023/03/14 01:18:36;;;;;;;0.50;0.50;;;;;;;8.08;100.00;95297.44;29395;218;63004;-57
2023/03/14 01:19:09;;;;;;;0.50;0.50;;;;;;;8.09;100.00;95292.81;29395;228;63009;-58
2023/03/14 01:19:40;;;;;;;0.50;0.50;;;;;;;8.11;100.00;95289.81;29395;294;63005;-56
2023/03/14 01:20:14;;;;;;;0.50;0.50;;;;;;;8.12;100.00;95281.41;29395;210;63009;-56
2023/03/14 01:20:46;;;;;;;0.50;0.50;;;;;;;8.14;100.00;95289.19;29394;244;64009;-58
2023/03/14 01:21:24;;;;;;;0.50;0.50;;;;;;;8.18;100.00;95276.63;29395;229;63009;-56
2023/03/14 01:21:55;;;;;;;0.50;0.50;;;;;;;8.18;100.00;95274.72;29395;211;63005;-57
2023/03/14 01:22:27;;;;;;;0.50;0.50;;;;;;;8.17;100.00;95280.44;29394;272;64013;-57
2023/03/14 01:22:58;;;;;;;0.50;0.50;;;;;;;8.16;100.00;95276.16;29395;208;63005;-56
2023/03/14 01:23:30;;;;;;;0.50;0.50;;;;;;;8.26;100.00;95289.38;29395;326;63009;-56
2023/03/14 01:24:03;;;;;;;0.50;0.50;;;;;;;8.25;100.00;95276.97;29394;275;64009;-57
2023/03/14 01:24:36;;;;;;;0.57;0.57;;;;;;;8.25;100.00;95279.66;29394;230;64013;-57
2023/03/14 01:25:11;;;;;;;0.50;0.50;;;;;;;8.23;100.00;95276.50;29395;318;63004;-57
2023/03/14 01:25:43;;;;;;;0.50;0.50;;;;;;;8.21;100.00;95273.31;29395;218;63009;-70
2023/03/14 01:26:18;;;;;;;0.50;0.50;;;;;;;8.19;100.00;95275.53;29395;208;63004;-57
2023/03/14 01:26:50;;;;;;;0.50;0.50;;;;;;;8.15;100.00;95269.97;29395;199;63009;-70
2023/03/14 01:27:24;;;;;;;0.50;0.50;;;;;;;8.13;100.00;95271.38;29394;291;64009;-56
2023/03/14 01:28:00;;;;;;;0.50;0.50;;;;;;;8.11;100.00;95262.81;29395;224;63019;-57
2023/03/14 01:28:32;;;;;;;0.50;0.50;;;;;;;8.08;100.00;95259.63;29395;246;63005;-57
2023/03/14 01:29:04;;;;;;;0.50;0.50;;;;;;;8.08;100.00;95262.31;29395;250;63009;-66
2023/03/14 01:29:36;;;;;;;0.50;0.50;;;;;;;8.08;100.00;95254.22;29395;226;63005;-57
2023/03/14 01:30:10;;;;;;;0.50;0.50;;;;;;;8.05;100.00;95249.44;29395;197;63009;-57
2023/03/14 01:30:41;;;;;;;0.50;0.50;;;;;;;8.07;100.00;95258.03;29395;265;63005;-56
2023/03/14 01:31:13;;;;;;;0.50;0.50;;;;;;;8.07;100.00;95247.22;29395;202;63009;-57
2023/03/14 01:31:44;;;;;;;0.50;0.50;;;;;;;8.08;100.00;95246.13;29395;203;63004;-57
2023/03/14 01:32:15;;;;;;;0.50;0.50;;;;;;;8.10;100.00;95250.41;29394;265;64013;-57
2023/03/14 01:32:48;;;;;;;0.50;0.50;;;;;;;8.21;100.00;95246.28;29395;318;63004;-58
2023/03/14 01:33:22;;;;;;;0.50;0.50;;;;;;;8.23;100.00;95254.88;29395;247;63008;-58
2023/03/14 01:33:54;;;;;;;0.50;0.50;;;;;;;8.22;100.00;95250.56;29395;231;63000;-58
2023/03/14 01:34:25;;;;;;;0.50;0.50;;;;;;;8.22;100.00;95250.56;29395;307;63009;-56
2023/03/14 01:34:57;;;;;;;0.50;0.50;;;;;;;8.23;100.00;95246.75;29395;207;63005;-66
2023/03/14 01:35:29;;;;;;;0.50;0.50;;;;;;;8.20;100.00;95248.19;29395;217;63009;-57
2023/03/14 01:36:02;;;;;;;0.50;0.50;;;;;;;8.18;100.00;95241.50;29395;232;63005;-57
2023/03/14 01:36:33;;;;;;;0.50;0.50;;;;;;;8.16;100.00;95246.44;29395;238;63009;-57
2023/03/14 01:37:07;;;;;;;0.50;0.50;;;;;;;8.14;100.00;95245.97;29395;237;63005;-58
2023/03/14 01:37:39;;;;;;;0.50;0.50;;;;;;;8.12;100.00;95248.97;29394;196;64013;-58
2023/03/14 01:38:10;;;;;;;0.50;0.50;;;;;;;8.17;100.00;95246.13;29395;216;63005;-56
2023/03/14 01:38:43;;;;;;;0.50;0.50;;;;;;;8.22;100.00;95247.88;29395;241;63009;-57
2023/03/14 01:39:14;;;;;;;0.50;0.50;;;;;;;8.23;100.00;95246.75;29395;218;63008;-57
2023/03/14 01:39:47;;;;;;;0.50;0.50;;;;;;;8.28;100.00;95252.03;29395;202;63009;-57
2023/03/14 01:40:20;;;;;;;0.50;0.50;;;;;;;8.28;100.00;95235.81;29395;214;63004;-57
2023/03/14 01:40:51;;;;;;;0.50;0.50;;;;;;;8.24;100.00;95237.56;29395;214;63008;-57
2023/03/14 01:41:26;;;;;;;0.50;0.50;;;;;;;8.22;100.00;95229.75;29395;321;63004;-67
2023/03/14 01:42:00;;;;;;;0.50;0.50;;;;;;;8.19;100.00;95225.00;29394;214;64014;-58
2023/03/14 01:42:32;;;;;;;0.50;0.50;;;;;;;8.19;100.00;95226.91;29394;317;64009;-56
2023/03/14 01:43:15;;;;;;;0.50;0.50;;;;;;;8.27;100.00;95215.31;29395;216;63009;-57
2023/03/14 01:43:48;;;;;;;0.50;0.50;;;;;;;8.31;100.00;95218.97;29395;239;63005;-56
2023/03/14 01:44:20;;;;;;;0.50;0.50;;;;;;;8.38;100.00;95213.87;29396;225;63009;-57
2023/03/14 01:44:56;;;;;;;0.50;0.50;;;;;;;8.36;100.00;95219.59;29394;316;64009;-56
2023/03/14 01:46:03;;;;;;;0.50;0.50;;;;;;;8.37;100.00;95212.28;29395;349;63009;-57
2023/03/14 01:46:38;;;;;;;0.50;0.50;;;;;;;8.35;100.00;95209.09;29395;220;63009;-57
2023/03/14 01:47:10;;;;;;;0.50;0.50;;;;;;;8.30;100.00;95211.97;29395;269;63004;-57
2023/03/14 01:47:41;;;;;;;0.50;0.50;;;;;;;8.27;100.00;95205.28;29395;223;63008;-56
2023/03/14 01:48:12;;;;;;;0.50;0.50;;;;;;;8.26;100.00;95202.91;29395;222;63004;-58
2023/03/14 01:49:26;;;;;;;0.50;0.50;;;;;;;8.32;100.00;95197.03;29395;219;63008;-57
2023/03/14 01:50:08;;;;;;;0.50;0.50;;;;;;;8.34;100.00;95199.41;29394;203;64009;-58
2023/03/14 01:50:39;;;;;;;0.50;0.50;;;;;;;8.38;100.00;95203.06;29395;225;63009;-56
2023/03/14 01:51:19;;;;;;;0.50;0.50;;;;;;;8.34;100.00;95196.69;29395;208;63005;-56
2023/03/14 01:52:12;;;;;;;0.50;0.50;;;;;;;8.27;100.00;95194.47;29395;228;63009;-57
2023/03/14 01:52:48;;;;;;;0.50;0.50;;;;;;;8.24;100.00;95199.72;29394;198;64009;-57
2023/03/14 01:53:21;;;;;;;0.50;0.50;;;;;;;8.21;100.00;95216.56;29395;199;63009;-58
2023/03/14 01:54:00;;;;;;;0.50;0.50;;;;;;;8.30;100.00;95201.16;29394;222;64009;-56
2023/03/14 01:54:39;;;;;;;0.50;0.50;;;;;;;8.30;100.00;95201.16;29395;212;63009;-56
2023/03/14 01:55:15;;;;;;;0.50;0.50;;;;;;;8.36;100.00;95205.28;29395;263;63004;-57
2023/03/14 01:55:56;;;;;;;0.50;0.50;;;;;;;8.32;100.00;95198.91;29395;212;63008;-57
2023/03/14 01:56:28;;;;;;;0.50;0.50;;;;;;;8.28;100.00;95192.56;29417;278;63005;-57
2023/03/14 01:57:32;;;;;;;0.50;0.50;;;;;;;8.45;100.00;95192.56;29395;212;63009;-57
2023/03/14 01:58:05;;;;;;;0.50;0.50;;;;;;;8.56;98.96;95183.00;29395;215;63005;-55
2023/03/14 01:58:37;;;;;;;0.50;0.50;;;;;;;8.56;98.45;95183.00;29394;210;64013;-56
2023/03/14 01:59:10;;;;;;;0.50;0.50;;;;;;;8.50;98.65;95184.28;29395;279;63005;-55
2023/03/14 01:59:46;;;;;;;0.50;0.50;;;;;;;8.41;99.07;95194.31;29395;219;63016;-54
2023/03/14 02:00:21;;;;;;;0.50;0.50;;;;;;;8.35;99.64;95187.47;29395;202;63004;-54
2023/03/14 02:00:55;;;;;;;0.50;0.50;;;;;;;8.31;100.00;95181.12;29395;214;63009;-55
2023/03/14 02:01:30;;;;;;;0.50;0.50;;;;;;;8.29;100.00;95199.56;29395;214;63004;-54
2023/03/14 02:02:07;;;;;;;0.50;0.50;;;;;;;8.25;100.00;95187.81;29395;215;63009;-54
2023/03/14 02:02:47;;;;;;;0.50;0.50;;;;;;;8.22;100.00;95199.25;29394;320;64008;-54
2023/03/14 02:03:22;;;;;;;0.50;0.50;;;;;;;8.22;100.00;95193.84;29395;291;63008;-54
2023/03/14 02:03:56;;;;;;;0.50;0.50;;;;;;;8.22;100.00;95188.44;29395;234;63005;-53
2023/03/14 02:04:33;;;;;;;0.50;0.50;;;;;;;8.29;100.00;95196.88;29395;228;63009;-56
2023/03/14 02:05:06;;;;;;;0.50;0.50;;;;;;;8.25;100.00;95187.81;29395;224;63005;-55
2023/03/14 02:05:40;;;;;;;0.50;0.50;;;;;;;8.27;100.00;95201.78;29394;213;64013;-55
2023/03/14 02:06:17;;;;;;;0.50;0.50;;;;;;;8.30;100.00;95193.03;29394;243;64009;-57
2023/03/14 02:07:12;;;;;;;0.50;0.50;;;;;;;8.45;98.29;95197.19;29395;300;63009;-57
2023/03/14 02:07:56;;;;;;;0.50;0.50;;;;;;;8.45;98.46;95202.59;29395;256;63004;-58
2023/03/14 02:08:27;;;;;;;0.50;0.50;;;;;;;8.45;98.51;95197.97;29395;196;63009;-63
2023/03/14 02:09:00;;;;;;;0.50;0.50;;;;;;;8.39;98.47;95196.53;29395;202;63004;-56
2023/03/14 02:09:31;;;;;;;0.50;0.50;;;;;;;8.34;98.69;95196.69;29395;210;63009;-56
2023/03/14 02:10:05;;;;;;;0.50;0.50;;;;;;;8.29;99.30;95196.88;29394;206;64009;-55
2023/03/14 02:10:44;;;;;;;0.50;0.50;;;;;;;8.25;99.56;95204.00;29395;376;63008;-55
2023/03/14 02:11:18;;;;;;;0.50;0.50;;;;;;;8.23;99.95;95200.84;29395;225;63005;-63
2023/03/14 02:11:51;;;;;;;0.50;0.50;;;;;;;8.31;100.00;95194.63;29395;238;63009;-56
2023/03/14 02:12:25;;;;;;;0.50;0.50;;;;;;;8.37;100.00;95201.47;29394;218;64009;-56
2023/03/14 02:13:02;;;;;;;0.50;0.50;;;;;;;8.32;99.89;95193.50;29395;236;63009;-62
2023/03/14 02:13:34;;;;;;;0.50;0.50;;;;;;;8.27;99.99;95199.09;29395;197;63019;-55
2023/03/14 02:14:07;;;;;;;0.50;0.50;;;;;;;8.25;100.00;95198.59;29395;222;63009;-55
2023/03/14 02:14:42;;;;;;;0.50;0.50;;;;;;;8.24;100.00;95197.03;29395;239;63005;-56
2023/03/14 02:15:13;;;;;;;0.50;0.50;;;;;;;8.22;100.00;95199.25;29395;212;63009;-55
2023/03/14 02:15:45;;;;;;;0.50;0.50;;;;;;;8.18;100.00;95190.19;29395;197;63004;-55
2023/03/14 02:16:16;;;;;;;0.50;0.50;;;;;;;8.15;100.00;95190.81;29395;279;63009;-62
2023/03/14 02:16:48;;;;;;;0.50;0.50;;;;;;;8.11;100.00;95204.16;29395;331;63004;-55
2023/03/14 02:17:22;;;;;;;0.50;0.50;;;;;;;8.07;100.00;95195.91;29395;287;63009;-56
2023/03/14 02:17:54;;;;;;;0.50;0.50;;;;;;;8.07;100.00;95198.59;29394;196;64008;-56
2023/03/14 02:18:26;;;;;;;0.50;0.50;;;;;;;8.05;100.00;95195.41;29395;212;63008;-55
2023/03/14 02:18:57;;;;;;;0.50;0.50;;;;;;;8.10;100.00;95201.78;29395;229;63014;-55
2023/03/14 02:20:05;;;;;;;0.50;0.50;;;;;;;8.06;100.00;95197.00;29395;257;63009;-55
2023/03/14 02:21:00;;;;;;;0.50;0.50;;;;;;;8.04;100.00;95196.53;29394;212;64009;-55
2023/03/14 02:22:05;;;;;;;0.50;0.50;;;;;;;7.98;100.00;95195.09;29395;266;63009;-55
2023/03/14 02:22:40;;;;;;;0.50;0.50;;;;;;;7.95;100.00;95195.75;29394;290;64009;-56
2023/03/14 02:23:15;;;;;;;0.50;0.50;;;;;;;7.95;100.00;95192.25;29395;287;63009;-55
2023/03/14 02:24:32;;;;;;;0.50;0.50;;;;;;;7.94;100.00;95194.16;29394;217;64009;-55
2023/03/14 02:25:41;;;;;;;0.50;0.50;;;;;;;7.91;100.00;95189.41;29395;202;63004;-54
2023/03/14 02:26:24;;;;;;;0.50;0.50;;;;;;;7.90;100.00;95189.72;29394;202;64014;-54
2023/03/14 02:27:12;;;;;;;0.50;0.50;;;;;;;7.88;100.00;95189.22;29394;220;64009;-55
2023/03/14 02:27:46;;;;;;;0.50;0.50;;;;;;;7.86;100.00;95177.94;29395;235;63009;-54
2023/03/14 02:28:18;;;;;;;0.50;0.50;;;;;;;7.86;100.00;95175.25;29395;220;63005;-55
2023/03/14 02:28:50;;;;;;;0.50;0.50;;;;;;;7.86;100.00;95176.03;29395;289;63009;-55
2023/03/14 02:29:22;;;;;;;0.50;0.50;;;;;;;7.87;100.00;95176.84;29394;222;64009;-55
2023/03/14 02:30:07;;;;;;;0.50;0.50;;;;;;;7.85;100.00;95176.34;29395;253;63009;-55
2023/03/14 02:30:38;;;;;;;0.50;0.50;;;;;;;7.86;100.00;95176.03;29395;216;63004;-56
2023/03/14 02:31:10;;;;;;;0.50;0.50;;;;;;;7.86;100.00;95170.66;29395;227;63009;-55
2023/03/14 02:31:42;;;;;;;0.50;0.50;;;;;;;7.87;100.00;95174.94;29394;224;64009;-56
2023/03/14 02:32:16;;;;;;;0.50;0.50;;;;;;;7.88;100.00;95173.03;29395;204;63009;-55
2023/03/14 02:32:52;;;;;;;0.50;0.50;;;;;;;7.95;100.00;95157.94;29394;262;64009;-56
2023/03/14 02:33:24;;;;;;;0.50;0.50;;;;;;;8.03;100.00;95159.81;29394;199;64013;-55
2023/03/14 02:33:58;;;;;;;0.50;0.50;;;;;;;8.04;100.00;95169.53;29395;228;63005;-55
2023/03/14 02:34:31;;;;;;;0.50;0.50;;;;;;;8.02;100.00;95169.03;29395;335;63009;-55
2023/03/14 02:35:11;;;;;;;0.50;0.50;;;;;;;8.03;100.00;95162.53;29395;225;63005;-54
2023/03/14 02:35:53;;;;;;;0.50;0.50;;;;;;;7.95;100.00;95163.34;29394;208;64013;-55
2023/03/14 02:36:25;;;;;;;0.50;0.50;;;;;;;7.97;100.00;95155.69;29395;266;63005;-54
2023/03/14 02:36:56;;;;;;;0.50;0.50;;;;;;;7.97;100.00;95161.09;29395;221;63009;-61
2023/03/14 02:37:42;;;;;;;0.50;0.50;;;;;;;8.01;100.00;95162.06;29395;218;63005;-54
2023/03/14 02:38:31;;;;;;;0.50;0.50;;;;;;;8.01;100.00;95172.84;29395;254;63009;-56
2023/03/14 02:39:19;;;;;;;0.50;0.50;;;;;;;7.93;100.00;95179.06;29394;219;64009;-55
2023/03/14 02:39:51;;;;;;;0.50;0.50;;;;;;;7.94;100.00;95171.75;29395;210;63009;-55
2023/03/14 02:40:22;;;;;;;0.50;0.50;;;;;;;7.90;100.00;95171.59;29395;221;63004;-54
2023/03/14 02:40:54;;;;;;;0.50;0.50;;;;;;;7.93;100.00;95176.37;29395;259;63019;-54
2023/03/14 02:41:25;;;;;;;0.50;0.50;;;;;;;7.92;100.00;95169.37;29395;220;63005;-64
2023/03/14 02:41:56;;;;;;;0.50;0.50;;;;;;;7.92;100.00;95169.37;29395;298;63009;-55
2023/03/14 02:42:28;;;;;;;0.50;0.50;;;;;;;7.97;100.00;95163.03;29395;206;63005;-56
2023/03/14 02:43:00;;;;;;;0.50;0.50;;;;;;;7.96;100.00;95175.75;29395;209;63009;-55
2023/03/14 02:43:31;;;;;;;0.50;0.50;;;;;;;7.92;100.00;95168.59;29394;258;64009;-55
2023/03/14 02:44:03;;;;;;;0.50;0.50;;;;;;;7.94;100.00;95186.06;29395;203;63009;-55
2023/03/14 02:44:35;;;;;;;0.50;0.50;;;;;;;7.96;100.00;95175.75;29395;325;63005;-55
2023/03/14 02:45:34;;;;;;;0.50;0.50;;;;;;;8.01;100.00;95174.75;29395;269;63009;-55
2023/03/14 02:46:06;;;;;;;0.50;0.50;;;;;;;7.99;100.00;95164.28;29395;306;63004;-55